createdAt,value
2023-01-13T00:00:51.383Z,100515.91
2023-01-13T00:03:17.869Z,100527.88
2023-01-13T00:05:44.420Z,100529.50
2023-01-13T00:08:10.967Z,100515.22
2023-01-13T00:10:37.476Z,100517.94
2023-01-13T00:13:05.380Z,100513.72
2023-01-13T00:15:33.055Z,100506.31
2023-01-13T00:18:00.858Z,100503.72
2023-01-13T00:20:27.489Z,100515.94
2023-01-13T00:22:55.323Z,100509.06
2023-01-13T00:25:21.861Z,100506.47
2023-01-13T00:27:48.314Z,100512.03
2023-01-13T00:30:15.030Z,100521.88
2023-01-13T00:32:41.724Z,100530.66
2023-01-13T00:35:08.969Z,100522.75
2023-01-13T00:37:38.055Z,100544.50
2023-01-13T00:40:05.675Z,100544.00
2023-01-13T00:42:50.738Z,100533.41
2023-01-13T00:45:17.384Z,100516.72
2023-01-13T00:47:44.195Z,100519.63
2023-01-13T00:50:11.084Z,100512.75
2023-01-13T00:52:37.609Z,100506.91
2023-01-13T00:55:04.519Z,100508.25
2023-01-13T00:57:31.172Z,100500.59
2023-01-13T00:59:57.868Z,100493.97
2023-01-13T01:02:24.469Z,100481.81
2023-01-13T01:04:51.072Z,100487.38
2023-01-13T01:07:17.636Z,100482.88
2023-01-13T01:09:44.210Z,100485.78
2023-01-13T01:12:10.746Z,100464.09
2023-01-13T01:14:37.192Z,100487.94
2023-01-13T01:17:03.937Z,100477.34
2023-01-13T01:19:30.586Z,100470.47
2023-01-13T01:21:57.195Z,100472.84
2023-01-13T01:24:23.953Z,100481.84
2023-01-13T01:26:50.540Z,100471.53
2023-01-13T01:29:17.249Z,100469.19
2023-01-13T01:31:44.689Z,100473.38
2023-01-13T01:34:11.410Z,100478.97
2023-01-13T01:36:39.533Z,100475.78
2023-01-13T01:39:06.892Z,100475.78
2023-01-13T01:41:35.106Z,100488.56
2023-01-13T01:44:07.532Z,100495.69
2023-01-13T01:46:39.753Z,100507.09
2023-01-13T01:49:20.372Z,100499.94
2023-01-13T01:51:52.572Z,100501.25
2023-01-13T01:54:38.351Z,100501.75
2023-01-13T01:57:06.039Z,100498.31
2023-01-13T01:59:35.942Z,100504.66
2023-01-13T02:02:03.126Z,100503.88
2023-01-13T02:04:34.454Z,100495.66
2023-01-13T02:07:03.932Z,100475.00
2023-01-13T02:09:31.071Z,100482.97
2023-01-13T02:12:16.064Z,100475.00
2023-01-13T02:14:43.912Z,100479.81
2023-01-13T02:17:42.363Z,100485.41
2023-01-13T02:20:17.735Z,100503.94
2023-01-13T02:23:37.713Z,100474.28
2023-01-13T02:26:39.075Z,100471.91
2023-01-13T02:29:48.861Z,100485.94
2023-01-13T02:32:26.083Z,100469.25
2023-01-13T02:35:03.339Z,100476.44
2023-01-13T02:37:33.460Z,100467.97
2023-01-13T02:40:06.447Z,100465.31
2023-01-13T02:42:54.243Z,100450.22
2023-01-13T02:45:33.771Z,100447.28
2023-01-13T02:48:05.879Z,100439.03
2023-01-13T02:50:37.830Z,100437.22
2023-01-13T02:53:10.765Z,100447.81
2023-01-13T02:55:42.859Z,100453.88
2023-01-13T02:58:14.740Z,100438.00
2023-01-13T03:00:42.245Z,100440.66
2023-01-13T03:03:08.996Z,100446.72
2023-01-13T03:05:36.554Z,100439.56
2023-01-13T03:08:31.017Z,100458.63
2023-01-13T03:11:07.703Z,100457.81
2023-01-13T03:13:42.850Z,100439.28
2023-01-13T03:16:35.062Z,100435.59
2023-01-13T03:19:07.894Z,100421.84
2023-01-13T03:21:57.758Z,100433.47
2023-01-13T03:24:36.923Z,100433.75
2023-01-13T03:27:41.714Z,100434.84
2023-01-13T03:30:22.757Z,100432.97
2023-01-13T03:32:53.892Z,100435.38
2023-01-13T03:35:31.122Z,100440.16
2023-01-13T03:38:11.768Z,100438.59
2023-01-13T03:40:48.012Z,100443.91
2023-01-13T03:43:38.737Z,100456.88
2023-01-13T03:46:12.722Z,100457.41
2023-01-13T03:48:45.137Z,100454.75
2023-01-13T03:51:16.675Z,100440.16
2023-01-13T03:53:52.327Z,100439.38
2023-01-13T03:56:35.246Z,100436.72
2023-01-13T03:59:05.135Z,100430.06
2023-01-13T04:02:03.308Z,100432.72
2023-01-13T04:04:34.855Z,100425.09
2023-01-13T04:07:20.776Z,100425.88
2023-01-13T04:09:52.649Z,100447.06
2023-01-13T04:12:51.168Z,100425.09
2023-01-13T04:15:20.997Z,100428.50
2023-01-13T04:17:47.924Z,100426.13
2023-01-13T04:20:14.717Z,100436.22
2023-01-13T04:22:41.411Z,100444.72
2023-01-13T04:25:08.841Z,100437.84
2023-01-13T04:27:35.418Z,100450.56
2023-01-13T04:30:02.006Z,100449.00
2023-01-13T04:32:29.626Z,100452.69
2023-01-13T04:34:56.345Z,100457.50
2023-01-13T04:37:22.926Z,100445.59
2023-01-13T04:39:49.527Z,100456.97
2023-01-13T04:42:16.050Z,100461.50
2023-01-13T04:44:42.582Z,100454.59
2023-01-13T04:47:09.270Z,100446.13
2023-01-13T04:49:35.894Z,100441.41
2023-01-13T04:52:03.876Z,100439.53
2023-01-13T04:54:30.556Z,100429.53
2023-01-13T04:56:57.273Z,100445.41
2023-01-13T04:59:23.981Z,100424.22
2023-01-13T05:01:50.773Z,100440.38
2023-01-13T05:04:17.378Z,100444.09
2023-01-13T05:06:44.145Z,100440.38
2023-01-13T05:09:12.418Z,100435.09
2023-01-13T05:11:58.038Z,100426.09
2023-01-13T05:14:43.172Z,100423.44
2023-01-13T05:17:14.460Z,100418.41
2023-01-13T05:19:40.976Z,100426.63
2023-01-13T05:22:26.465Z,100412.34
2023-01-13T05:25:11.721Z,100421.06
2023-01-13T05:27:38.236Z,100420.28
2023-01-13T05:30:06.210Z,100414.19
2023-01-13T05:32:32.973Z,100410.75
2023-01-13T05:34:59.624Z,100420.56
2023-01-13T05:37:28.280Z,100426.38
2023-01-13T05:40:24.134Z,100415.53
2023-01-13T05:43:22.312Z,100417.41
2023-01-13T05:45:57.973Z,100430.13
2023-01-13T05:48:27.599Z,100415.00
2023-01-13T05:50:54.934Z,100436.75
2023-01-13T05:53:22.394Z,100438.91
2023-01-13T05:55:49.898Z,100428.31
2023-01-13T05:58:18.158Z,100440.22
2023-01-13T06:00:45.506Z,100440.22
2023-01-13T06:03:13.078Z,100429.91
2023-01-13T06:05:40.241Z,100435.75
2023-01-13T06:08:07.751Z,100432.59
2023-01-13T06:10:35.239Z,100435.25
2023-01-13T06:13:02.897Z,100427.88
2023-01-13T06:15:29.666Z,100425.47
2023-01-13T06:17:57.394Z,100429.69
2023-01-13T06:20:24.942Z,100442.41
2023-01-13T06:22:53.481Z,100446.91
2023-01-13T06:25:29.297Z,100455.63
2023-01-13T06:27:59.156Z,100428.41
2023-01-13T06:30:29.484Z,100428.13
2023-01-13T06:32:59.021Z,100421.75
2023-01-13T06:35:34.209Z,100431.03
2023-01-13T06:38:05.436Z,100441.03
2023-01-13T06:40:32.119Z,100451.63
2023-01-13T06:43:17.742Z,100463.25
2023-01-13T06:45:54.880Z,100463.75
2023-01-13T06:48:27.997Z,100453.19
2023-01-13T06:50:54.789Z,100457.94
2023-01-13T06:53:21.630Z,100466.66
2023-01-13T06:55:48.354Z,100442.56
2023-01-13T06:58:14.898Z,100472.19
2023-01-13T07:00:41.677Z,100465.81
2023-01-13T07:03:13.972Z,100466.59
2023-01-13T07:05:42.317Z,100458.41
2023-01-13T07:08:10.162Z,100465.56
2023-01-13T07:10:37.586Z,100468.22
2023-01-13T07:13:24.864Z,100470.59
2023-01-13T07:16:00.124Z,100465.00
2023-01-13T07:18:28.594Z,100469.22
2023-01-13T07:20:57.426Z,100471.63
2023-01-13T07:23:25.348Z,100469.75
2023-01-13T07:25:51.999Z,100488.28
2023-01-13T07:28:18.598Z,100487.19
2023-01-13T07:30:45.403Z,100490.38
2023-01-13T07:33:12.078Z,100494.31
2023-01-13T07:35:38.745Z,100507.00
2023-01-13T07:38:05.633Z,100477.03
2023-01-13T07:40:32.418Z,100490.78
2023-01-13T07:43:17.698Z,100487.03
2023-01-13T07:45:44.490Z,100474.75
2023-01-13T07:48:11.231Z,100493.47
2023-01-13T07:50:37.785Z,100493.13
2023-01-13T07:53:04.767Z,100492.28
2023-01-13T07:55:31.453Z,100499.91
2023-01-13T07:57:58.080Z,100496.38
2023-01-13T08:00:24.661Z,100488.34
2023-01-13T08:02:51.467Z,100506.59
2023-01-13T08:05:18.574Z,100495.41
2023-01-13T08:07:45.172Z,100489.22
2023-01-13T08:10:11.947Z,100490.50
2023-01-13T08:12:57.308Z,100488.59
2023-01-13T08:15:24.047Z,100478.19
2023-01-13T08:17:50.679Z,100487.41
2023-01-13T08:20:17.432Z,100509.41
2023-01-13T08:22:44.475Z,100497.66
2023-01-13T08:25:11.289Z,100497.09
2023-01-13T08:27:38.170Z,100492.34
2023-01-13T08:30:05.845Z,100510.53
2023-01-13T08:32:32.429Z,100511.06
2023-01-13T08:34:59.053Z,100521.34
2023-01-13T08:37:25.725Z,100520.28
2023-01-13T08:39:52.269Z,100522.06
2023-01-13T08:42:18.814Z,100532.97
2023-01-13T08:44:45.345Z,100524.34
2023-01-13T08:47:12.276Z,100538.19
2023-01-13T08:49:38.949Z,100529.72
2023-01-13T08:52:06.961Z,100551.44
2023-01-13T08:54:33.753Z,100544.28
2023-01-13T08:57:03.244Z,100548.63
2023-01-13T08:59:30.250Z,100561.63
2023-01-13T09:01:57.045Z,100571.00
2023-01-13T09:04:25.888Z,100569.47
2023-01-13T09:06:52.794Z,100572.16
2023-01-13T09:09:19.735Z,100577.25
2023-01-13T09:12:08.571Z,100576.44
2023-01-13T09:14:37.494Z,100577.19
2023-01-13T09:17:04.135Z,100584.34
2023-01-13T09:19:31.218Z,100590.72
2023-01-13T09:21:58.058Z,100592.31
2023-01-13T09:24:25.931Z,100600.25
2023-01-13T09:26:52.984Z,100582.25
2023-01-13T09:29:19.953Z,100598.72
2023-01-13T09:31:47.275Z,100598.22
2023-01-13T09:34:35.318Z,100584.22
2023-01-13T09:37:02.840Z,100600.94
2023-01-13T09:39:29.605Z,100596.41
2023-01-13T09:42:17.264Z,100606.25
2023-01-13T09:44:57.824Z,100615.50
2023-01-13T09:47:34.020Z,100603.78
2023-01-13T09:50:25.602Z,100600.31
2023-01-13T09:52:52.773Z,100624.13
2023-01-13T09:55:26.966Z,100623.53
2023-01-13T09:57:53.593Z,100621.41
2023-01-13T10:00:27.635Z,100617.66
2023-01-13T10:03:13.847Z,100618.72
2023-01-13T10:05:45.815Z,100616.25
2023-01-13T10:08:24.969Z,100630.09
2023-01-13T10:10:58.431Z,100617.34
2023-01-13T10:13:29.227Z,100627.13
2023-01-13T10:16:05.750Z,100630.38
2023-01-13T10:18:44.679Z,100636.19
2023-01-13T10:21:50.612Z,100645.19
2023-01-13T10:24:19.853Z,100650.00
2023-01-13T10:26:52.510Z,100648.34
2023-01-13T10:29:25.424Z,100654.75
2023-01-13T10:31:56.103Z,100655.25
2023-01-13T10:34:24.284Z,100670.59
2023-01-13T10:36:58.145Z,100666.31
2023-01-13T10:39:25.329Z,100674.25
2023-01-13T10:42:07.333Z,100672.03
2023-01-13T10:44:49.213Z,100674.16
2023-01-13T10:47:27.932Z,100679.22
2023-01-13T10:50:09.335Z,100672.28
2023-01-13T10:52:42.914Z,100672.81
2023-01-13T10:55:34.426Z,100683.66
2023-01-13T10:58:22.251Z,100682.38
2023-01-13T11:00:49.759Z,100680.78
2023-01-13T11:03:20.496Z,100693.00
2023-01-13T11:05:49.986Z,100695.59
2023-01-13T11:08:19.077Z,100685.72
2023-01-13T11:10:49.626Z,100696.34
2023-01-13T11:13:19.989Z,100703.16
2023-01-13T11:16:05.657Z,100702.66
2023-01-13T11:18:38.268Z,100706.16
2023-01-13T11:21:09.938Z,100703.75
2023-01-13T11:23:42.289Z,100701.28
2023-01-13T11:26:26.811Z,100700.25
2023-01-13T11:29:01.372Z,100697.28
2023-01-13T11:31:36.914Z,100707.78
2023-01-13T11:34:14.293Z,100699.28
2023-01-13T11:36:49.543Z,100709.91
2023-01-13T11:39:47.693Z,100713.28
2023-01-13T11:42:25.982Z,100703.63
2023-01-13T11:45:07.595Z,100700.19
2023-01-13T11:47:35.974Z,100728.19
2023-01-13T11:50:03.472Z,100726.81
2023-01-13T11:52:59.447Z,100719.09
2023-01-13T11:55:30.354Z,100738.78
2023-01-13T11:58:31.853Z,100731.00
2023-01-13T12:01:10.649Z,100750.06
2023-01-13T12:03:50.251Z,100747.63
2023-01-13T12:06:34.966Z,100736.50
2023-01-13T12:09:26.398Z,100740.72
2023-01-13T12:12:20.460Z,100716.56
2023-01-13T12:14:52.821Z,100761.47
2023-01-13T12:17:38.163Z,100758.25
2023-01-13T12:20:31.213Z,100767.00
2023-01-13T12:23:04.370Z,100761.19
2023-01-13T12:25:39.604Z,100772.31
2023-01-13T12:28:19.264Z,100766.16
2023-01-13T12:30:53.850Z,100770.38
2023-01-13T12:33:50.279Z,100778.06
2023-01-13T12:36:25.233Z,100772.47
2023-01-13T12:38:59.308Z,100778.44
2023-01-13T12:42:00.211Z,100784.19
2023-01-13T12:44:26.968Z,100787.84
2023-01-13T12:46:58.981Z,100789.16
2023-01-13T12:49:28.509Z,100788.88
2023-01-13T12:51:55.196Z,100790.22
2023-01-13T12:54:30.932Z,100786.91
2023-01-13T12:56:58.650Z,100808.69
2023-01-13T12:59:25.101Z,100795.91
2023-01-13T13:02:11.895Z,100794.53
2023-01-13T13:04:49.436Z,100819.53
2023-01-13T13:07:23.611Z,100813.94
2023-01-13T13:09:55.770Z,100821.81
2023-01-13T13:12:50.656Z,100814.44
2023-01-13T13:15:29.408Z,100810.34
2023-01-13T13:18:02.580Z,100816.31
2023-01-13T13:20:55.855Z,100833.56
2023-01-13T13:23:43.656Z,100831.19
2023-01-13T13:26:38.126Z,100842.03
2023-01-13T13:29:13.755Z,100853.81
2023-01-13T13:32:09.419Z,100848.41
2023-01-13T13:34:52.539Z,100855.84
2023-01-13T13:37:32.762Z,100862.22
2023-01-13T13:40:27.719Z,100864.56
2023-01-13T13:43:16.752Z,100868.50
2023-01-13T13:46:10.084Z,100861.81
2023-01-13T13:48:37.466Z,100879.19
2023-01-13T13:51:22.698Z,100880.00
2023-01-13T13:53:49.596Z,100875.97
2023-01-13T13:56:22.076Z,100880.94
2023-01-13T13:58:50.471Z,100890.84
2023-01-13T14:01:24.276Z,100889.28
2023-01-13T14:04:06.021Z,100897.25
2023-01-13T14:06:33.074Z,100912.56
2023-01-13T14:09:00.110Z,100913.72
2023-01-13T14:11:29.918Z,100929.72
2023-01-13T14:14:04.959Z,100924.06
2023-01-13T14:16:33.893Z,100928.16
2023-01-13T14:19:01.629Z,100941.72
2023-01-13T14:21:30.162Z,100934.53
2023-01-13T14:24:01.871Z,100942.50
2023-01-13T14:26:31.300Z,100946.25
2023-01-13T14:29:00.656Z,100961.69
2023-01-13T14:31:28.295Z,100964.94
2023-01-13T14:33:58.421Z,100958.25
2023-01-13T14:36:34.109Z,100970.25
2023-01-13T14:39:03.623Z,100958.78
2023-01-13T14:41:41.944Z,100967.88
2023-01-13T14:44:32.033Z,100977.72
2023-01-13T14:47:03.231Z,100983.81
2023-01-13T14:49:39.457Z,100990.72
2023-01-13T14:52:25.487Z,100982.56
2023-01-13T14:54:54.566Z,100996.63
2023-01-13T14:57:31.385Z,100991.91
2023-01-13T15:00:19.869Z,100992.41
2023-01-13T15:02:58.747Z,101013.44
2023-01-13T15:05:25.437Z,101025.88
2023-01-13T15:08:05.319Z,101022.50
2023-01-13T15:10:31.969Z,101047.19
2023-01-13T15:13:01.238Z,101038.38
2023-01-13T15:15:32.933Z,101033.91
2023-01-13T15:18:10.639Z,101045.31
2023-01-13T15:20:37.561Z,101047.72
2023-01-13T15:23:04.404Z,101053.78
2023-01-13T15:25:35.866Z,101056.22
2023-01-13T15:28:04.580Z,101063.94
2023-01-13T15:30:31.506Z,101069.81
2023-01-13T15:32:58.999Z,101071.91
2023-01-13T15:35:28.860Z,101072.19
2023-01-13T15:37:57.197Z,101090.56
2023-01-13T15:40:29.632Z,101091.34
2023-01-13T15:43:15.111Z,101093.50
2023-01-13T15:46:00.914Z,101100.69
2023-01-13T15:48:33.712Z,101112.09
2023-01-13T15:51:02.719Z,101109.25
2023-01-13T15:53:30.335Z,101116.94
2023-01-13T15:55:59.014Z,101120.38
2023-01-13T15:58:30.692Z,101122.00
2023-01-13T16:00:57.599Z,101112.72
2023-01-13T16:03:24.422Z,101122.53
2023-01-13T16:05:51.124Z,101133.47
2023-01-13T16:08:19.987Z,101147.78
2023-01-13T16:10:47.872Z,101138.47
2023-01-13T16:13:15.638Z,101151.53
2023-01-13T16:15:47.387Z,101150.19
2023-01-13T16:18:17.780Z,101152.84
2023-01-13T16:20:44.894Z,101157.91
2023-01-13T16:23:12.293Z,101165.63
2023-01-13T16:25:40.326Z,101180.47
2023-01-13T16:28:07.080Z,101170.41
2023-01-13T16:30:37.495Z,101182.38
2023-01-13T16:33:04.292Z,101177.84
2023-01-13T16:35:35.744Z,101186.91
2023-01-13T16:38:22.195Z,101193.28
2023-01-13T16:40:48.919Z,101184.28
2023-01-13T16:43:15.956Z,101189.63
2023-01-13T16:45:43.190Z,101189.63
2023-01-13T16:48:19.890Z,101191.75
2023-01-13T16:50:47.036Z,101220.19
2023-01-13T16:53:13.949Z,101222.56
2023-01-13T16:55:41.886Z,101229.81
2023-01-13T16:58:17.426Z,101238.34
2023-01-13T17:00:46.996Z,101234.13
2023-01-13T17:03:16.903Z,101228.59
2023-01-13T17:05:46.801Z,101229.66
2023-01-13T17:08:18.051Z,101228.06
2023-01-13T17:10:47.860Z,101235.75
2023-01-13T17:13:17.055Z,101241.06
2023-01-13T17:15:44.561Z,101243.72
2023-01-13T17:18:13.371Z,101252.47
2023-01-13T17:20:40.304Z,101259.09
2023-01-13T17:23:06.923Z,101267.81
2023-01-13T17:25:33.586Z,101267.56
2023-01-13T17:28:00.230Z,101275.78
2023-01-13T17:30:26.841Z,101259.63
2023-01-13T17:32:53.403Z,101265.19
2023-01-13T17:35:24.720Z,101272.03
2023-01-13T17:37:52.795Z,101272.56
2023-01-13T17:40:19.893Z,101278.13
2023-01-13T17:42:46.404Z,101292.72
2023-01-13T17:45:13.062Z,101286.34
2023-01-13T17:47:39.672Z,101298.81
2023-01-13T17:50:06.671Z,101290.56
2023-01-13T17:52:34.714Z,101288.16
2023-01-13T17:55:01.272Z,101298.78
2023-01-13T17:57:28.037Z,101295.06
2023-01-13T17:59:54.699Z,101294.78
2023-01-13T18:02:21.390Z,101307.81
2023-01-13T18:04:47.986Z,101311.50
2023-01-13T18:07:14.568Z,101315.22
2023-01-13T18:09:41.200Z,101313.59
2023-01-13T18:12:07.802Z,101312.31
2023-01-13T18:14:34.778Z,101315.22
2023-01-13T18:17:01.384Z,101314.44
2023-01-13T18:19:46.502Z,101316.28
2023-01-13T18:22:32.850Z,101321.09
2023-01-13T18:25:17.955Z,101317.91
2023-01-13T18:27:44.894Z,101319.50
2023-01-13T18:30:12.783Z,101319.22
2023-01-13T18:32:39.564Z,101315.50
2023-01-13T18:35:10.447Z,101327.69
2023-01-13T18:37:42.480Z,101338.28
2023-01-13T18:40:11.295Z,101348.63
2023-01-13T18:42:56.301Z,101361.38
2023-01-13T18:45:29.620Z,101349.44
2023-01-13T18:47:59.072Z,101359.78
2023-01-13T18:50:27.214Z,101347.31
2023-01-13T18:52:54.167Z,101350.50
2023-01-13T18:55:21.527Z,101357.69
2023-01-13T18:57:48.325Z,101359.53
2023-01-13T19:00:17.494Z,101361.94
2023-01-13T19:02:44.557Z,101352.41
2023-01-13T19:05:11.100Z,101357.72
2023-01-13T19:07:39.932Z,101368.34
2023-01-13T19:10:09.759Z,101378.94
2023-01-13T19:12:36.677Z,101384.50
2023-01-13T19:15:03.517Z,101381.59
2023-01-13T19:17:34.292Z,101386.91
2023-01-13T19:20:00.917Z,101387.69
2023-01-13T19:22:31.015Z,101403.63
2023-01-13T19:24:58.559Z,101391.16
2023-01-13T19:27:27.577Z,101403.34
2023-01-13T19:29:57.574Z,101395.41
2023-01-13T19:32:24.678Z,101402.03
2023-01-13T19:34:51.629Z,101402.03
2023-01-13T19:37:19.622Z,101399.63
2023-01-13T19:39:46.798Z,101419.25
2023-01-13T19:42:32.141Z,101417.41
2023-01-13T19:45:17.109Z,101425.91
2023-01-13T19:47:45.574Z,101437.84
2023-01-13T19:50:12.850Z,101434.66
2023-01-13T19:52:39.430Z,101426.69
2023-01-13T19:55:06.612Z,101429.34
2023-01-13T19:57:33.229Z,101433.31
2023-01-13T19:59:59.912Z,101436.25
2023-01-13T20:02:31.515Z,101444.75
2023-01-13T20:05:00.633Z,101441.03
2023-01-13T20:07:30.024Z,101453.25
2023-01-13T20:09:57.234Z,101453.00
2023-01-13T20:12:25.559Z,101456.97
2023-01-13T20:14:52.638Z,101460.97
2023-01-13T20:17:21.509Z,101463.38
2023-01-13T20:19:48.229Z,101448.25
2023-01-13T20:22:15.598Z,101462.56
2023-01-13T20:24:42.420Z,101468.63
2023-01-13T20:27:09.736Z,101462.00
2023-01-13T20:29:36.700Z,101462.53
2023-01-13T20:32:03.490Z,101458.56
2023-01-13T20:34:30.457Z,101456.16
2023-01-13T20:36:57.030Z,101461.97
2023-01-13T20:39:26.695Z,101469.13
2023-01-13T20:42:12.065Z,101470.19
2023-01-13T20:44:39.434Z,101488.22
2023-01-13T20:47:06.546Z,101500.41
2023-01-13T20:49:34.511Z,101504.16
2023-01-13T20:52:01.272Z,101497.50
2023-01-13T20:54:28.014Z,101502.03
2023-01-13T20:56:54.558Z,101503.34
2023-01-13T20:59:22.868Z,101497.75
2023-01-13T21:01:49.587Z,101511.81
2023-01-13T21:04:16.248Z,101508.06
2023-01-13T21:06:42.963Z,101505.69
2023-01-13T21:09:09.751Z,101516.78
2023-01-13T21:11:56.266Z,101519.63
2023-01-13T21:14:44.713Z,101527.81
2023-01-13T21:17:32.731Z,101537.06
2023-01-13T21:19:59.903Z,101537.78
2023-01-13T21:22:26.505Z,101540.41
2023-01-13T21:24:53.191Z,101544.06
2023-01-13T21:27:20.567Z,101541.13
2023-01-13T21:29:47.428Z,101542.66
2023-01-13T21:32:14.240Z,101535.47
2023-01-13T21:34:40.874Z,101542.09
2023-01-13T21:37:07.901Z,101549.72
2023-01-13T21:39:34.617Z,101548.88
2023-01-13T21:42:19.848Z,101552.59
2023-01-13T21:45:04.964Z,101557.59
2023-01-13T21:47:49.941Z,101558.91
2023-01-13T21:50:26.311Z,101557.56
2023-01-13T21:52:52.939Z,101557.00
2023-01-13T21:55:23.850Z,101562.53
2023-01-13T21:57:53.657Z,101562.78
2023-01-13T22:00:22.086Z,101568.88
2023-01-13T22:02:49.429Z,101569.94
2023-01-13T22:05:18.731Z,101579.19
2023-01-13T22:07:45.885Z,101574.13
2023-01-13T22:10:21.816Z,101575.44
2023-01-13T22:12:48.852Z,101588.91
2023-01-13T22:15:16.626Z,101592.63
2023-01-13T22:17:45.624Z,101605.88
2023-01-13T22:20:13.374Z,101599.75
2023-01-13T22:22:40.381Z,101595.81
2023-01-13T22:25:10.679Z,101602.72
2023-01-13T22:27:40.716Z,101610.16
2023-01-13T22:30:11.421Z,101606.47
2023-01-13T22:32:41.037Z,101607.53
2023-01-13T22:35:09.538Z,101601.16
2023-01-13T22:37:36.355Z,101606.69
2023-01-13T22:40:05.403Z,101603.25
2023-01-13T22:42:32.215Z,101614.09
2023-01-13T22:44:58.752Z,101606.16
2023-01-13T22:47:25.438Z,101605.34
2023-01-13T22:49:52.127Z,101611.72
2023-01-13T22:52:18.616Z,101613.53
2023-01-13T22:54:45.184Z,101611.16
2023-01-13T22:57:11.919Z,101613.81
2023-01-13T22:59:39.091Z,101621.19
2023-01-13T23:02:05.664Z,101618.00
2023-01-13T23:04:32.339Z,101621.69
2023-01-13T23:07:00.121Z,101615.84
2023-01-13T23:09:29.794Z,101625.63
2023-01-13T23:11:58.200Z,101630.38
2023-01-13T23:14:25.378Z,101626.94
2023-01-13T23:16:52.187Z,101627.41
2023-01-13T23:19:19.032Z,101628.19
2023-01-13T23:21:45.548Z,101630.28
2023-01-13T23:24:12.090Z,101624.22
2023-01-13T23:26:39.815Z,101621.31
2023-01-13T23:29:08.946Z,101618.69
2023-01-13T23:31:35.860Z,101609.94
2023-01-13T23:34:02.749Z,101607.84
2023-01-13T23:36:29.932Z,101611.53
2023-01-13T23:38:59.260Z,101599.09
2023-01-13T23:41:27.686Z,101599.63
2023-01-13T23:43:57.087Z,101595.97
2023-01-13T23:46:24.557Z,101598.38
2023-01-13T23:48:51.366Z,101594.34
2023-01-13T23:51:21.001Z,101601.81
2023-01-13T23:53:48.986Z,101603.66
2023-01-13T23:56:20.577Z,101603.66
2023-01-13T23:58:47.870Z,101606.03
